createdAt,value
2022-09-17T00:01:59.765Z,53.15
2022-09-17T00:04:30.209Z,53.20
2022-09-17T00:07:00.344Z,53.13
2022-09-17T00:09:31.525Z,53.28
2022-09-17T00:12:03.205Z,53.05
2022-09-17T00:14:33.016Z,53.11
2022-09-17T00:17:02.812Z,53.10
2022-09-17T00:19:32.561Z,53.37
2022-09-17T00:22:02.856Z,53.66
2022-09-17T00:24:32.860Z,53.49
2022-09-17T00:27:04.289Z,53.49
2022-09-17T00:29:34.534Z,53.66
2022-09-17T00:32:04.405Z,53.92
2022-09-17T00:34:34.502Z,54.44
2022-09-17T00:37:04.572Z,54.70
2022-09-17T00:39:34.443Z,54.87
2022-09-17T00:42:10.680Z,55.11
2022-09-17T00:44:48.249Z,55.25
2022-09-17T00:47:24.660Z,55.38
2022-09-17T00:49:59.501Z,55.66
2022-09-17T00:52:35.483Z,56.10
2022-09-17T00:55:13.043Z,56.20
2022-09-17T00:57:45.978Z,55.86
2022-09-17T01:00:17.844Z,55.36
2022-09-17T01:02:48.360Z,55.10
2022-09-17T01:05:18.855Z,55.12
2022-09-17T01:08:02.486Z,55.56
2022-09-17T01:10:44.395Z,56.26
2022-09-17T01:13:27.652Z,56.33
2022-09-17T01:16:04.461Z,57.17
2022-09-17T01:18:49.559Z,57.73
2022-09-17T01:21:57.924Z,58.10
2022-09-17T01:25:00.383Z,58.08
2022-09-17T01:27:58.830Z,58.34
2022-09-17T01:31:13.754Z,58.33
2022-09-17T01:33:48.839Z,58.28
2022-09-17T01:36:26.497Z,58.55
2022-09-17T01:39:07.495Z,58.40
2022-09-17T01:41:44.838Z,58.22
2022-09-17T01:44:23.107Z,58.26
2022-09-17T01:46:57.740Z,58.42
2022-09-17T01:49:31.767Z,58.60
2022-09-17T01:52:03.099Z,58.43
2022-09-17T01:54:39.201Z,58.31
2022-09-17T01:57:17.114Z,58.25
2022-09-17T01:59:51.569Z,58.98
2022-09-17T02:02:28.010Z,59.20
2022-09-17T02:05:04.518Z,59.70
2022-09-17T02:07:42.015Z,59.32
2022-09-17T02:10:18.696Z,59.21
2022-09-17T02:12:57.336Z,58.39
2022-09-17T02:15:32.382Z,58.05
2022-09-17T02:18:07.977Z,58.31
2022-09-17T02:20:44.820Z,58.39
2022-09-17T02:23:19.988Z,59.11
2022-09-17T02:25:54.584Z,58.65
2022-09-17T02:28:34.098Z,58.53
2022-09-17T02:31:04.040Z,58.76
2022-09-17T02:33:35.878Z,57.95
2022-09-17T02:36:07.782Z,57.33
2022-09-17T02:38:42.459Z,57.34
2022-09-17T02:41:18.399Z,57.19
2022-09-17T02:44:00.301Z,57.73
2022-09-17T02:46:53.962Z,57.59
2022-09-17T02:49:30.998Z,57.56
2022-09-17T02:52:13.444Z,58.15
2022-09-17T02:54:50.784Z,58.59
2022-09-17T02:57:25.548Z,58.38
2022-09-17T03:00:04.344Z,58.57
2022-09-17T03:02:42.295Z,58.37
2022-09-17T03:05:13.212Z,58.36
2022-09-17T03:07:44.371Z,58.43
2022-09-17T03:10:14.179Z,59.14
2022-09-17T03:12:44.455Z,59.05
2022-09-17T03:15:14.437Z,58.88
2022-09-17T03:17:44.332Z,58.87
2022-09-17T03:20:16.146Z,58.47
2022-09-17T03:22:47.314Z,58.53
2022-09-17T03:25:17.422Z,58.39
2022-09-17T03:27:48.332Z,58.90
2022-09-17T03:30:19.792Z,58.89
2022-09-17T03:32:49.596Z,59.24
2022-09-17T03:35:19.436Z,59.27
2022-09-17T03:37:50.580Z,58.78
2022-09-17T03:40:21.849Z,58.93
2022-09-17T03:42:51.663Z,59.42
2022-09-17T03:45:39.576Z,59.67
2022-09-17T03:48:09.253Z,59.54
2022-09-17T03:50:39.027Z,58.78
2022-09-17T03:53:11.271Z,58.61
2022-09-17T03:55:41.447Z,58.46
2022-09-17T03:58:12.257Z,58.00
2022-09-17T04:00:43.557Z,58.02
2022-09-17T04:03:13.311Z,58.17
2022-09-17T04:05:43.140Z,58.38
2022-09-17T04:08:14.207Z,58.06
2022-09-17T04:10:44.771Z,58.44
2022-09-17T04:13:15.891Z,59.64
2022-09-17T04:15:46.338Z,59.35
2022-09-17T04:18:16.348Z,59.39
2022-09-17T04:20:46.308Z,59.82
2022-09-17T04:23:17.513Z,59.44
2022-09-17T04:25:47.504Z,58.74
2022-09-17T04:28:17.916Z,58.31
2022-09-17T04:30:49.196Z,58.55
2022-09-17T04:33:19.078Z,58.45
2022-09-17T04:35:49.386Z,59.03
2022-09-17T04:38:22.216Z,59.74
2022-09-17T04:40:52.078Z,59.68
2022-09-17T04:43:21.999Z,59.96
2022-09-17T04:45:52.037Z,60.36
2022-09-17T04:48:21.926Z,60.25
2022-09-17T04:50:51.788Z,60.63
2022-09-17T04:53:23.229Z,60.34
2022-09-17T04:55:53.419Z,60.21
2022-09-17T04:58:23.392Z,59.40
2022-09-17T05:00:53.353Z,59.32
2022-09-17T05:03:23.185Z,58.96
2022-09-17T05:05:53.007Z,58.85
2022-09-17T05:08:25.360Z,59.12
2022-09-17T05:10:55.147Z,59.06
2022-09-17T05:13:24.949Z,58.29
2022-09-17T05:15:56.593Z,58.25
2022-09-17T05:18:26.684Z,57.96
2022-09-17T05:20:56.377Z,58.03
2022-09-17T05:23:27.692Z,57.64
2022-09-17T05:25:59.449Z,57.42
2022-09-17T05:28:29.929Z,56.89
2022-09-17T05:31:01.969Z,56.99
2022-09-17T05:33:32.027Z,56.72
2022-09-17T05:36:02.162Z,56.51
2022-09-17T05:38:33.455Z,56.68
2022-09-17T05:41:06.415Z,56.12
2022-09-17T05:43:36.744Z,56.26
2022-09-17T05:46:07.141Z,56.27
2022-09-17T05:48:37.050Z,56.21
2022-09-17T05:51:07.062Z,56.67
2022-09-17T05:53:38.282Z,56.82
2022-09-17T05:56:09.760Z,57.53
2022-09-17T05:58:39.507Z,58.12
2022-09-17T06:01:16.013Z,58.08
2022-09-17T06:03:46.053Z,57.87
2022-09-17T06:06:15.913Z,58.01
2022-09-17T06:08:47.113Z,58.69
2022-09-17T06:11:16.802Z,58.44
2022-09-17T06:13:46.540Z,58.74
2022-09-17T06:16:16.660Z,59.00
2022-09-17T06:18:46.573Z,59.13
2022-09-17T06:21:17.328Z,59.39
2022-09-17T06:23:48.996Z,60.03
2022-09-17T06:26:19.383Z,59.71
2022-09-17T06:28:49.253Z,59.67
2022-09-17T06:31:19.134Z,59.98
2022-09-17T06:33:49.374Z,59.43
2022-09-17T06:36:19.391Z,59.86
2022-09-17T06:38:50.824Z,60.33
2022-09-17T06:41:20.626Z,60.17
2022-09-17T06:43:54.141Z,59.58
2022-09-17T06:46:24.118Z,59.17
2022-09-17T06:48:54.284Z,58.97
2022-09-17T06:51:24.509Z,58.99
2022-09-17T06:53:55.961Z,59.14
2022-09-17T06:56:25.952Z,58.76
2022-09-17T06:58:55.799Z,58.19
2022-09-17T07:01:25.665Z,58.01
2022-09-17T07:03:55.490Z,57.95
2022-09-17T07:06:25.692Z,57.62
2022-09-17T07:08:57.036Z,57.48
2022-09-17T07:11:27.198Z,56.83
2022-09-17T07:13:57.851Z,56.98
2022-09-17T07:16:28.186Z,57.27
2022-09-17T07:18:58.313Z,56.93
2022-09-17T07:21:28.387Z,56.87
2022-09-17T07:23:59.963Z,56.89
